sensor_id;sensor_type;location;lat;lon;timestamp;P1;durP1;ratioP1;P2;durP2;ratioP2
50851;SDS011;43953;45.508;-122.806;2022-09-27T00:00:04;7.40;;;6.65;;
50851;SDS011;43953;45.508;-122.806;2022-09-27T00:00:37;7.28;;;6.65;;
50851;SDS011;43953;45.508;-122.806;2022-09-27T00:01:12;8.45;;;6.72;;
50851;SDS011;43953;45.508;-122.806;2022-09-27T00:01:45;9.85;;;6.47;;
50851;SDS011;43953;45.508;-122.806;2022-09-27T00:02:17;8.65;;;6.93;;
50851;SDS011;43953;45.508;-122.806;2022-09-27T00:02:48;8.55;;;6.63;;
50851;SDS011;43953;45.508;-122.806;2022-09-27T00:03:21;7.05;;;6.45;;
50851;SDS011;43953;45.508;-122.806;2022-09-27T00:03:52;9.88;;;6.68;;
50851;SDS011;43953;45.508;-122.806;2022-09-27T00:04:25;13.90;;;7.22;;
50851;SDS011;43953;45.508;-122.806;2022-09-27T00:04:57;8.35;;;7.45;;
50851;SDS011;43953;45.508;-122.806;2022-09-27T00:05:29;9.07;;;7.70;;
50851;SDS011;43953;45.508;-122.806;2022-09-27T00:06:34;8.13;;;6.63;;
50851;SDS011;43953;45.508;-122.806;2022-09-27T00:07:05;8.63;;;6.88;;
50851;SDS011;43953;45.508;-122.806;2022-09-27T00:07:37;8.40;;;7.57;;
50851;SDS011;43953;45.508;-122.806;2022-09-27T00:08:09;9.57;;;6.63;;
50851;SDS011;43953;45.508;-122.806;2022-09-27T00:08:41;7.97;;;7.00;;
50851;SDS011;43953;45.508;-122.806;2022-09-27T00:09:13;8.75;;;7.35;;
50851;SDS011;43953;45.508;-122.806;2022-09-27T00:09:44;9.60;;;7.55;;
50851;SDS011;43953;45.508;-122.806;2022-09-27T00:10:16;9.00;;;6.78;;
50851;SDS011;43953;45.508;-122.806;2022-09-27T00:10:56;7.25;;;6.47;;
50851;SDS011;43953;45.508;-122.806;2022-09-27T00:12:04;7.95;;;6.32;;
50851;SDS011;43953;45.508;-122.806;2022-09-27T00:12:36;9.13;;;6.35;;
50851;SDS011;43953;45.508;-122.806;2022-09-27T00:13:08;10.90;;;6.30;;
50851;SDS011;43953;45.508;-122.806;2022-09-27T00:13:39;9.73;;;6.38;;
50851;SDS011;43953;45.508;-122.806;2022-09-27T00:14:12;13.68;;;7.13;;
50851;SDS011;43953;45.508;-122.806;2022-09-27T00:14:45;8.85;;;6.65;;
50851;SDS011;43953;45.508;-122.806;2022-09-27T00:15:17;7.65;;;6.65;;
50851;SDS011;43953;45.508;-122.806;2022-09-27T00:15:54;8.13;;;7.07;;
50851;SDS011;43953;45.508;-122.806;2022-09-27T00:16:36;10.40;;;6.00;;
50851;SDS011;43953;45.508;-122.806;2022-09-27T00:17:09;8.48;;;6.30;;
50851;SDS011;43953;45.508;-122.806;2022-09-27T00:17:41;13.15;;;6.63;;
50851;SDS011;43953;45.508;-122.806;2022-09-27T00:18:13;7.47;;;6.78;;
50851;SDS011;43953;45.508;-122.806;2022-09-27T00:18:46;7.90;;;7.10;;
50851;SDS011;43953;45.508;-122.806;2022-09-27T00:19:19;9.25;;;7.18;;
50851;SDS011;43953;45.508;-122.806;2022-09-27T00:19:53;7.53;;;6.80;;
50851;SDS011;43953;45.508;-122.806;2022-09-27T00:20:28;13.15;;;7.13;;
50851;SDS011;43953;45.508;-122.806;2022-09-27T00:21:03;9.40;;;7.28;;
50851;SDS011;43953;45.508;-122.806;2022-09-27T00:21:39;8.65;;;6.32;;
50851;SDS011;43953;45.508;-122.806;2022-09-27T00:22:12;7.30;;;6.57;;
50851;SDS011;43953;45.508;-122.806;2022-09-27T00:22:43;8.27;;;7.47;;
50851;SDS011;43953;45.508;-122.806;2022-09-27T00:23:15;8.93;;;6.45;;
50851;SDS011;43953;45.508;-122.806;2022-09-27T00:23:47;10.82;;;7.40;;
50851;SDS011;43953;45.508;-122.806;2022-09-27T00:24:20;7.97;;;6.25;;
50851;SDS011;43953;45.508;-122.806;2022-09-27T00:24:52;7.78;;;6.93;;
50851;SDS011;43953;45.508;-122.806;2022-09-27T00:25:24;10.15;;;6.85;;
50851;SDS011;43953;45.508;-122.806;2022-09-27T00:25:56;10.25;;;6.22;;
50851;SDS011;43953;45.508;-122.806;2022-09-27T00:26:29;8.30;;;6.90;;
50851;SDS011;43953;45.508;-122.806;2022-09-27T00:27:01;7.72;;;6.93;;
50851;SDS011;43953;45.508;-122.806;2022-09-27T00:27:33;9.02;;;6.50;;
50851;SDS011;43953;45.508;-122.806;2022-09-27T00:28:04;7.43;;;6.30;;
50851;SDS011;43953;45.508;-122.806;2022-09-27T00:28:36;9.65;;;5.95;;
50851;SDS011;43953;45.508;-122.806;2022-09-27T00:29:08;7.25;;;6.60;;
50851;SDS011;43953;45.508;-122.806;2022-09-27T00:29:41;7.07;;;6.13;;
50851;SDS011;43953;45.508;-122.806;2022-09-27T00:30:12;7.55;;;6.57;;
50851;SDS011;43953;45.508;-122.806;2022-09-27T00:30:44;7.43;;;6.07;;
50851;SDS011;43953;45.508;-122.806;2022-09-27T00:31:17;5.75;;;5.20;;
50851;SDS011;43953;45.508;-122.806;2022-09-27T00:31:53;7.00;;;5.97;;
50851;SDS011;43953;45.508;-122.806;2022-09-27T00:32:25;7.57;;;6.65;;
50851;SDS011;43953;45.508;-122.806;2022-09-27T00:32:57;8.45;;;5.43;;
50851;SDS011;43953;45.508;-122.806;2022-09-27T00:33:29;7.68;;;5.60;;
50851;SDS011;43953;45.508;-122.806;2022-09-27T00:34:01;7.65;;;5.50;;
50851;SDS011;43953;45.508;-122.806;2022-09-27T00:34:34;8.50;;;5.88;;
50851;SDS011;43953;45.508;-122.806;2022-09-27T00:35:06;9.18;;;6.40;;
50851;SDS011;43953;45.508;-122.806;2022-09-27T00:35:38;8.32;;;6.20;;
50851;SDS011;43953;45.508;-122.806;2022-09-27T00:36:10;6.43;;;5.72;;
50851;SDS011;43953;45.508;-122.806;2022-09-27T00:36:42;8.18;;;5.55;;
50851;SDS011;43953;45.508;-122.806;2022-09-27T00:37:13;7.22;;;5.07;;
50851;SDS011;43953;45.508;-122.806;2022-09-27T00:37:47;6.03;;;5.43;;
50851;SDS011;43953;45.508;-122.806;2022-09-27T00:38:19;6.90;;;5.68;;
50851;SDS011;43953;45.508;-122.806;2022-09-27T00:38:50;7.15;;;5.82;;
50851;SDS011;43953;45.508;-122.806;2022-09-27T00:39:23;6.70;;;5.93;;
50851;SDS011;43953;45.508;-122.806;2022-09-27T00:39:55;8.45;;;5.57;;
50851;SDS011;43953;45.508;-122.806;2022-09-27T00:40:26;7.88;;;5.63;;
50851;SDS011;43953;45.508;-122.806;2022-09-27T00:40:58;8.05;;;5.80;;
50851;SDS011;43953;45.508;-122.806;2022-09-27T00:41:32;7.57;;;5.32;;
50851;SDS011;43953;45.508;-122.806;2022-09-27T00:42:08;6.90;;;5.70;;
50851;SDS011;43953;45.508;-122.806;2022-09-27T00:42:41;5.65;;;5.10;;
50851;SDS011;43953;45.508;-122.806;2022-09-27T00:43:20;6.25;;;5.60;;
50851;SDS011;43953;45.508;-122.806;2022-09-27T00:43:55;7.25;;;5.30;;
50851;SDS011;43953;45.508;-122.806;2022-09-27T00:45:04;8.20;;;5.45;;
50851;SDS011;43953;45.508;-122.806;2022-09-27T00:45:42;7.68;;;5.78;;
50851;SDS011;43953;45.508;-122.806;2022-09-27T00:46:19;7.68;;;5.88;;
50851;SDS011;43953;45.508;-122.806;2022-09-27T00:47:46;14.38;;;5.88;;
50851;SDS011;43953;45.508;-122.806;2022-09-27T00:48:21;7.35;;;5.65;;
50851;SDS011;43953;45.508;-122.806;2022-09-27T00:49:46;8.45;;;6.15;;
50851;SDS011;43953;45.508;-122.806;2022-09-27T00:50:34;9.48;;;6.00;;
50851;SDS011;43953;45.508;-122.806;2022-09-27T00:51:10;7.72;;;5.43;;
50851;SDS011;43953;45.508;-122.806;2022-09-27T00:51:42;6.55;;;5.40;;
50851;SDS011;43953;45.508;-122.806;2022-09-27T00:52:20;9.43;;;5.80;;
50851;SDS011;43953;45.508;-122.806;2022-09-27T00:54:21;6.88;;;5.85;;
50851;SDS011;43953;45.508;-122.806;2022-09-27T00:54:57;6.45;;;5.90;;
50851;SDS011;43953;45.508;-122.806;2022-09-27T00:55:42;7.43;;;5.95;;
50851;SDS011;43953;45.508;-122.806;2022-09-27T00:56:26;7.95;;;6.25;;
50851;SDS011;43953;45.508;-122.806;2022-09-27T00:57:01;8.65;;;5.80;;
50851;SDS011;43953;45.508;-122.806;2022-09-27T00:57:33;6.60;;;5.55;;
50851;SDS011;43953;45.508;-122.806;2022-09-27T00:58:06;6.40;;;5.80;;
50851;SDS011;43953;45.508;-122.806;2022-09-27T00:58:41;6.45;;;5.78;;
50851;SDS011;43953;45.508;-122.806;2022-09-27T00:59:23;7.75;;;5.38;;
50851;SDS011;43953;45.508;-122.806;2022-09-27T01:00:08;8.65;;;5.97;;
50851;SDS011;43953;45.508;-122.806;2022-09-27T01:00:43;7.18;;;5.70;;
50851;SDS011;43953;45.508;-122.806;2022-09-27T01:01:18;7.07;;;5.38;;
50851;SDS011;43953;45.508;-122.806;2022-09-27T01:01:50;10.05;;;5.97;;
50851;SDS011;43953;45.508;-122.806;2022-09-27T01:02:21;8.02;;;5.97;;
50851;SDS011;43953;45.508;-122.806;2022-09-27T01:02:54;7.90;;;6.07;;
50851;SDS011;43953;45.508;-122.806;2022-09-27T01:04:12;5.75;;;4.95;;
50851;SDS011;43953;45.508;-122.806;2022-09-27T01:04:48;5.75;;;5.25;;
50851;SDS011;43953;45.508;-122.806;2022-09-27T01:05:22;7.50;;;5.60;;
50851;SDS011;43953;45.508;-122.806;2022-09-27T01:05:57;8.13;;;5.25;;
50851;SDS011;43953;45.508;-122.806;2022-09-27T01:06:30;7.93;;;6.10;;
50851;SDS011;43953;45.508;-122.806;2022-09-27T01:07:02;6.95;;;5.13;;
50851;SDS011;43953;45.508;-122.806;2022-09-27T01:07:34;6.15;;;5.65;;
50851;SDS011;43953;45.508;-122.806;2022-09-27T01:08:06;7.80;;;6.00;;
50851;SDS011;43953;45.508;-122.806;2022-09-27T01:08:39;6.18;;;5.57;;
50851;SDS011;43953;45.508;-122.806;2022-09-27T01:09:11;8.77;;;6.38;;
50851;SDS011;43953;45.508;-122.806;2022-09-27T01:09:43;7.65;;;5.90;;
50851;SDS011;43953;45.508;-122.806;2022-09-27T01:10:15;6.57;;;6.00;;
50851;SDS011;43953;45.508;-122.806;2022-09-27T01:10:57;8.32;;;5.53;;
50851;SDS011;43953;45.508;-122.806;2022-09-27T01:12:04;6.22;;;5.63;;
50851;SDS011;43953;45.508;-122.806;2022-09-27T01:12:44;8.15;;;5.50;;
50851;SDS011;43953;45.508;-122.806;2022-09-27T01:15:58;6.43;;;5.78;;
50851;SDS011;43953;45.508;-122.806;2022-09-27T01:17:15;9.65;;;5.93;;
50851;SDS011;43953;45.508;-122.806;2022-09-27T01:18:46;8.10;;;5.80;;
50851;SDS011;43953;45.508;-122.806;2022-09-27T01:24:47;7.90;;;5.32;;
50851;SDS011;43953;45.508;-122.806;2022-09-27T01:25:33;6.07;;;5.43;;
50851;SDS011;43953;45.508;-122.806;2022-09-27T01:26:12;7.40;;;5.20;;
50851;SDS011;43953;45.508;-122.806;2022-09-27T01:27:57;6.65;;;5.75;;
50851;SDS011;43953;45.508;-122.806;2022-09-27T01:30:18;6.97;;;5.95;;
50851;SDS011;43953;45.508;-122.806;2022-09-27T01:34:12;8.15;;;6.25;;
50851;SDS011;43953;45.508;-122.806;2022-09-27T01:35:16;7.32;;;5.93;;
50851;SDS011;43953;45.508;-122.806;2022-09-27T01:36:15;10.10;;;6.25;;
50851;SDS011;43953;45.508;-122.806;2022-09-27T01:36:52;6.28;;;5.55;;
50851;SDS011;43953;45.508;-122.806;2022-09-27T01:37:29;7.20;;;6.18;;
50851;SDS011;43953;45.508;-122.806;2022-09-27T01:38:56;6.97;;;6.28;;
50851;SDS011;43953;45.508;-122.806;2022-09-27T01:40:33;10.13;;;6.68;;
50851;SDS011;43953;45.508;-122.806;2022-09-27T01:43:01;6.78;;;6.18;;
50851;SDS011;43953;45.508;-122.806;2022-09-27T01:44:14;7.97;;;6.35;;
50851;SDS011;43953;45.508;-122.806;2022-09-27T01:45:17;6.97;;;6.25;;
50851;SDS011;43953;45.508;-122.806;2022-09-27T01:45:57;8.73;;;5.95;;
50851;SDS011;43953;45.508;-122.806;2022-09-27T01:46:44;8.30;;;7.20;;
50851;SDS011;43953;45.508;-122.806;2022-09-27T01:47:23;8.95;;;6.50;;
50851;SDS011;43953;45.508;-122.806;2022-09-27T01:48:09;9.00;;;6.18;;
50851;SDS011;43953;45.508;-122.806;2022-09-27T01:48:53;7.50;;;6.20;;
50851;SDS011;43953;45.508;-122.806;2022-09-27T01:49:40;7.43;;;6.38;;
50851;SDS011;43953;45.508;-122.806;2022-09-27T01:51:13;7.03;;;6.13;;
50851;SDS011;43953;45.508;-122.806;2022-09-27T01:52:08;8.88;;;6.68;;
50851;SDS011;43953;45.508;-122.806;2022-09-27T01:52:53;9.10;;;6.75;;
50851;SDS011;43953;45.508;-122.806;2022-09-27T01:53:46;7.38;;;6.15;;
50851;SDS011;43953;45.508;-122.806;2022-09-27T01:54:23;7.60;;;6.85;;
50851;SDS011;43953;45.508;-122.806;2022-09-27T01:55:02;6.47;;;5.90;;
50851;SDS011;43953;45.508;-122.806;2022-09-27T01:55:37;7.95;;;6.15;;
50851;SDS011;43953;45.508;-122.806;2022-09-27T01:56:12;7.63;;;6.80;;
50851;SDS011;43953;45.508;-122.806;2022-09-27T01:56:52;9.07;;;7.10;;
50851;SDS011;43953;45.508;-122.806;2022-09-27T01:57:30;9.00;;;6.38;;
50851;SDS011;43953;45.508;-122.806;2022-09-27T01:58:11;6.68;;;5.82;;
50851;SDS011;43953;45.508;-122.806;2022-09-27T01:59:44;7.38;;;6.63;;
50851;SDS011;43953;45.508;-122.806;2022-09-27T02:00:20;7.15;;;6.15;;
50851;SDS011;43953;45.508;-122.806;2022-09-27T02:00:53;7.18;;;6.57;;
50851;SDS011;43953;45.508;-122.806;2022-09-27T02:01:26;7.53;;;6.82;;
50851;SDS011;43953;45.508;-122.806;2022-09-27T02:02:02;7.28;;;6.38;;
50851;SDS011;43953;45.508;-122.806;2022-09-27T02:02:49;9.35;;;6.68;;
50851;SDS011;43953;45.508;-122.806;2022-09-27T02:03:27;8.18;;;7.35;;
50851;SDS011;43953;45.508;-122.806;2022-09-27T02:04:04;8.18;;;6.43;;
50851;SDS011;43953;45.508;-122.806;2022-09-27T02:04:41;7.80;;;6.57;;
50851;SDS011;43953;45.508;-122.806;2022-09-27T02:05:18;8.95;;;7.97;;
50851;SDS011;43953;45.508;-122.806;2022-09-27T02:05:58;11.40;;;7.40;;
50851;SDS011;43953;45.508;-122.806;2022-09-27T02:06:34;13.02;;;8.73;;
50851;SDS011;43953;45.508;-122.806;2022-09-27T02:07:21;8.45;;;7.00;;
50851;SDS011;43953;45.508;-122.806;2022-09-27T02:07:59;10.30;;;8.10;;
50851;SDS011;43953;45.508;-122.806;2022-09-27T02:08:46;9.57;;;7.32;;
50851;SDS011;43953;45.508;-122.806;2022-09-27T02:09:21;9.45;;;8.15;;
50851;SDS011;43953;45.508;-122.806;2022-09-27T02:10:00;8.20;;;7.30;;
50851;SDS011;43953;45.508;-122.806;2022-09-27T02:10:39;8.98;;;8.05;;
50851;SDS011;43953;45.508;-122.806;2022-09-27T02:11:14;8.32;;;6.82;;
50851;SDS011;43953;45.508;-122.806;2022-09-27T02:11:51;8.63;;;7.78;;
50851;SDS011;43953;45.508;-122.806;2022-09-27T02:12:30;8.38;;;7.35;;
50851;SDS011;43953;45.508;-122.806;2022-09-27T02:13:26;11.07;;;7.35;;
50851;SDS011;43953;45.508;-122.806;2022-09-27T02:14:16;10.25;;;6.93;;
50851;SDS011;43953;45.508;-122.806;2022-09-27T02:14:54;7.50;;;6.80;;
50851;SDS011;43953;45.508;-122.806;2022-09-27T02:15:28;7.90;;;6.88;;
50851;SDS011;43953;45.508;-122.806;2022-09-27T02:16:10;10.95;;;9.05;;
50851;SDS011;43953;45.508;-122.806;2022-09-27T02:18:08;10.88;;;6.72;;
50851;SDS011;43953;45.508;-122.806;2022-09-27T02:20:29;10.10;;;6.65;;
50851;SDS011;43953;45.508;-122.806;2022-09-27T02:21:05;8.05;;;6.93;;
50851;SDS011;43953;45.508;-122.806;2022-09-27T02:21:44;10.65;;;7.72;;
50851;SDS011;43953;45.508;-122.806;2022-09-27T02:23:34;7.43;;;6.72;;
50851;SDS011;43953;45.508;-122.806;2022-09-27T02:24:11;8.05;;;7.22;;
50851;SDS011;43953;45.508;-122.806;2022-09-27T02:24:55;9.57;;;6.90;;
50851;SDS011;43953;45.508;-122.806;2022-09-27T02:26:42;8.15;;;7.07;;
50851;SDS011;43953;45.508;-122.806;2022-09-27T02:27:19;9.73;;;6.90;;
50851;SDS011;43953;45.508;-122.806;2022-09-27T02:28:56;11.30;;;6.60;;
50851;SDS011;43953;45.508;-122.806;2022-09-27T02:29:40;8.70;;;6.70;;
50851;SDS011;43953;45.508;-122.806;2022-09-27T02:30:20;8.32;;;7.40;;
50851;SDS011;43953;45.508;-122.806;2022-09-27T02:30:53;8.98;;;6.15;;
50851;SDS011;43953;45.508;-122.806;2022-09-27T02:31:25;8.65;;;6.47;;
50851;SDS011;43953;45.508;-122.806;2022-09-27T02:31:57;8.52;;;7.60;;
50851;SDS011;43953;45.508;-122.806;2022-09-27T02:32:29;8.55;;;6.47;;
50851;SDS011;43953;45.508;-122.806;2022-09-27T02:33:00;8.15;;;7.32;;
50851;SDS011;43953;45.508;-122.806;2022-09-27T02:34:23;8.57;;;7.28;;
50851;SDS011;43953;45.508;-122.806;2022-09-27T02:35:01;8.27;;;7.43;;
50851;SDS011;43953;45.508;-122.806;2022-09-27T02:35:37;8.82;;;6.63;;
50851;SDS011;43953;45.508;-122.806;2022-09-27T02:36:09;8.93;;;6.95;;
50851;SDS011;43953;45.508;-122.806;2022-09-27T02:36:41;14.88;;;7.68;;
50851;SDS011;43953;45.508;-122.806;2022-09-27T02:37:13;8.40;;;6.40;;
50851;SDS011;43953;45.508;-122.806;2022-09-27T02:37:45;10.82;;;7.38;;
50851;SDS011;43953;45.508;-122.806;2022-09-27T02:38:18;9.13;;;6.47;;
50851;SDS011;43953;45.508;-122.806;2022-09-27T02:38:50;13.93;;;6.57;;
50851;SDS011;43953;45.508;-122.806;2022-09-27T02:39:22;8.13;;;7.30;;
50851;SDS011;43953;45.508;-122.806;2022-09-27T02:39:54;7.40;;;6.60;;
50851;SDS011;43953;45.508;-122.806;2022-09-27T02:40:32;10.75;;;6.70;;
50851;SDS011;43953;45.508;-122.806;2022-09-27T02:41:18;10.30;;;7.88;;
50851;SDS011;43953;45.508;-122.806;2022-09-27T02:41:51;8.60;;;6.60;;
50851;SDS011;43953;45.508;-122.806;2022-09-27T02:42:23;9.57;;;8.60;;
50851;SDS011;43953;45.508;-122.806;2022-09-27T02:42:56;10.02;;;7.30;;
50851;SDS011;43953;45.508;-122.806;2022-09-27T02:43:29;10.13;;;6.63;;
50851;SDS011;43953;45.508;-122.806;2022-09-27T02:44:04;8.70;;;7.43;;
50851;SDS011;43953;45.508;-122.806;2022-09-27T02:44:40;7.63;;;6.65;;
50851;SDS011;43953;45.508;-122.806;2022-09-27T02:45:13;13.20;;;6.95;;
50851;SDS011;43953;45.508;-122.806;2022-09-27T02:46:01;9.38;;;6.38;;
50851;SDS011;43953;45.508;-122.806;2022-09-27T02:46:52;10.82;;;6.97;;
50851;SDS011;43953;45.508;-122.806;2022-09-27T02:47:42;11.43;;;6.70;;
50851;SDS011;43953;45.508;-122.806;2022-09-27T02:48:32;9.18;;;7.07;;
50851;SDS011;43953;45.508;-122.806;2022-09-27T02:51:40;8.02;;;6.82;;
50851;SDS011;43953;45.508;-122.806;2022-09-27T02:52:49;9.82;;;6.35;;
50851;SDS011;43953;45.508;-122.806;2022-09-27T02:53:40;8.52;;;6.57;;
50851;SDS011;43953;45.508;-122.806;2022-09-27T02:57:02;10.38;;;6.55;;
50851;SDS011;43953;45.508;-122.806;2022-09-27T02:59:53;7.82;;;6.18;;
50851;SDS011;43953;45.508;-122.806;2022-09-27T03:00:47;9.10;;;6.13;;
50851;SDS011;43953;45.508;-122.806;2022-09-27T03:01:34;6.45;;;5.82;;
50851;SDS011;43953;45.508;-122.806;2022-09-27T03:02:10;11.85;;;6.55;;
50851;SDS011;43953;45.508;-122.806;2022-09-27T03:02:58;6.80;;;6.13;;
50851;SDS011;43953;45.508;-122.806;2022-09-27T03:03:42;9.20;;;6.60;;
50851;SDS011;43953;45.508;-122.806;2022-09-27T03:05:23;12.52;;;6.40;;
50851;SDS011;43953;45.508;-122.806;2022-09-27T03:06:00;11.65;;;6.35;;
50851;SDS011;43953;45.508;-122.806;2022-09-27T03:06:34;7.68;;;6.90;;
50851;SDS011;43953;45.508;-122.806;2022-09-27T03:07:09;8.20;;;6.15;;
50851;SDS011;43953;45.508;-122.806;2022-09-27T03:07:43;11.55;;;6.95;;
50851;SDS011;43953;45.508;-122.806;2022-09-27T03:08:16;8.15;;;6.68;;
50851;SDS011;43953;45.508;-122.806;2022-09-27T03:08:48;9.40;;;6.85;;
50851;SDS011;43953;45.508;-122.806;2022-09-27T03:09:22;7.90;;;6.95;;
50851;SDS011;43953;45.508;-122.806;2022-09-27T03:09:55;11.13;;;6.43;;
50851;SDS011;43953;45.508;-122.806;2022-09-27T03:10:27;7.97;;;7.20;;
50851;SDS011;43953;45.508;-122.806;2022-09-27T03:10:59;8.82;;;6.80;;
50851;SDS011;43953;45.508;-122.806;2022-09-27T03:11:31;11.40;;;6.85;;
50851;SDS011;43953;45.508;-122.806;2022-09-27T03:12:03;10.90;;;8.50;;
50851;SDS011;43953;45.508;-122.806;2022-09-27T03:12:35;9.65;;;7.90;;
50851;SDS011;43953;45.508;-122.806;2022-09-27T03:13:06;8.38;;;7.55;;
50851;SDS011;43953;45.508;-122.806;2022-09-27T03:13:38;8.52;;;7.65;;
50851;SDS011;43953;45.508;-122.806;2022-09-27T03:14:10;10.65;;;9.55;;
50851;SDS011;43953;45.508;-122.806;2022-09-27T03:14:42;9.05;;;7.65;;
50851;SDS011;43953;45.508;-122.806;2022-09-27T03:15:13;8.25;;;6.93;;
50851;SDS011;43953;45.508;-122.806;2022-09-27T03:15:46;9.73;;;8.50;;
50851;SDS011;43953;45.508;-122.806;2022-09-27T03:16:17;15.18;;;8.80;;
50851;SDS011;43953;45.508;-122.806;2022-09-27T03:16:49;9.43;;;7.35;;
50851;SDS011;43953;45.508;-122.806;2022-09-27T03:17:21;9.15;;;7.65;;
50851;SDS011;43953;45.508;-122.806;2022-09-27T03:17:53;8.60;;;6.95;;
50851;SDS011;43953;45.508;-122.806;2022-09-27T03:18:25;8.32;;;7.63;;
50851;SDS011;43953;45.508;-122.806;2022-09-27T03:18:57;9.88;;;7.95;;
50851;SDS011;43953;45.508;-122.806;2022-09-27T03:19:28;12.00;;;8.88;;
50851;SDS011;43953;45.508;-122.806;2022-09-27T03:20:00;10.85;;;8.63;;
50851;SDS011;43953;45.508;-122.806;2022-09-27T03:20:32;11.63;;;10.75;;
50851;SDS011;43953;45.508;-122.806;2022-09-27T03:21:04;10.45;;;8.35;;
50851;SDS011;43953;45.508;-122.806;2022-09-27T03:21:36;9.43;;;8.60;;
50851;SDS011;43953;45.508;-122.806;2022-09-27T03:22:07;10.77;;;8.20;;
50851;SDS011;43953;45.508;-122.806;2022-09-27T03:22:39;10.15;;;8.27;;
50851;SDS011;43953;45.508;-122.806;2022-09-27T03:23:12;9.23;;;8.35;;
50851;SDS011;43953;45.508;-122.806;2022-09-27T03:23:43;10.25;;;9.05;;
50851;SDS011;43953;45.508;-122.806;2022-09-27T03:24:15;8.68;;;7.40;;
50851;SDS011;43953;45.508;-122.806;2022-09-27T03:24:47;8.75;;;7.95;;
50851;SDS011;43953;45.508;-122.806;2022-09-27T03:25:19;11.93;;;10.35;;
50851;SDS011;43953;45.508;-122.806;2022-09-27T03:25:51;9.20;;;7.22;;
50851;SDS011;43953;45.508;-122.806;2022-09-27T03:26:23;11.60;;;8.77;;
50851;SDS011;43953;45.508;-122.806;2022-09-27T03:26:54;8.73;;;7.82;;
50851;SDS011;43953;45.508;-122.806;2022-09-27T03:27:26;8.70;;;7.45;;
50851;SDS011;43953;45.508;-122.806;2022-09-27T03:27:58;7.75;;;6.95;;
50851;SDS011;43953;45.508;-122.806;2022-09-27T03:28:30;11.60;;;8.52;;
50851;SDS011;43953;45.508;-122.806;2022-09-27T03:29:02;10.27;;;7.85;;
50851;SDS011;43953;45.508;-122.806;2022-09-27T03:29:34;11.27;;;8.18;;
50851;SDS011;43953;45.508;-122.806;2022-09-27T03:30:06;10.25;;;9.07;;
50851;SDS011;43953;45.508;-122.806;2022-09-27T03:30:38;9.55;;;8.18;;
50851;SDS011;43953;45.508;-122.806;2022-09-27T03:31:11;8.85;;;7.55;;
50851;SDS011;43953;45.508;-122.806;2022-09-27T03:31:44;10.68;;;9.00;;
50851;SDS011;43953;45.508;-122.806;2022-09-27T03:32:16;8.27;;;7.32;;
50851;SDS011;43953;45.508;-122.806;2022-09-27T03:32:48;8.52;;;7.43;;
50851;SDS011;43953;45.508;-122.806;2022-09-27T03:33:20;8.20;;;7.38;;
50851;SDS011;43953;45.508;-122.806;2022-09-27T03:33:51;9.85;;;7.63;;
50851;SDS011;43953;45.508;-122.806;2022-09-27T03:34:23;9.43;;;8.52;;
50851;SDS011;43953;45.508;-122.806;2022-09-27T03:34:55;8.73;;;7.50;;
50851;SDS011;43953;45.508;-122.806;2022-09-27T03:35:27;8.40;;;7.55;;
50851;SDS011;43953;45.508;-122.806;2022-09-27T03:35:58;9.98;;;8.32;;
50851;SDS011;43953;45.508;-122.806;2022-09-27T03:36:30;9.63;;;8.13;;
50851;SDS011;43953;45.508;-122.806;2022-09-27T03:37:42;9.45;;;7.53;;
50851;SDS011;43953;45.508;-122.806;2022-09-27T03:38:14;8.30;;;7.50;;
50851;SDS011;43953;45.508;-122.806;2022-09-27T03:38:46;9.55;;;8.57;;
50851;SDS011;43953;45.508;-122.806;2022-09-27T03:39:18;9.07;;;8.27;;
50851;SDS011;43953;45.508;-122.806;2022-09-27T03:39:49;7.65;;;6.97;;
50851;SDS011;43953;45.508;-122.806;2022-09-27T03:40:21;8.82;;;7.10;;
50851;SDS011;43953;45.508;-122.806;2022-09-27T03:40:53;8.45;;;7.60;;
50851;SDS011;43953;45.508;-122.806;2022-09-27T03:41:24;9.27;;;8.38;;
50851;SDS011;43953;45.508;-122.806;2022-09-27T03:41:56;10.20;;;7.90;;
50851;SDS011;43953;45.508;-122.806;2022-09-27T03:42:28;9.63;;;8.02;;
50851;SDS011;43953;45.508;-122.806;2022-09-27T03:42:59;8.27;;;7.35;;
50851;SDS011;43953;45.508;-122.806;2022-09-27T03:43:31;7.95;;;7.20;;
50851;SDS011;43953;45.508;-122.806;2022-09-27T03:44:03;9.70;;;8.75;;
50851;SDS011;43953;45.508;-122.806;2022-09-27T03:44:34;9.25;;;8.27;;
50851;SDS011;43953;45.508;-122.806;2022-09-27T03:45:06;9.00;;;8.07;;
50851;SDS011;43953;45.508;-122.806;2022-09-27T03:45:38;9.18;;;8.23;;
50851;SDS011;43953;45.508;-122.806;2022-09-27T03:46:10;7.72;;;6.95;;
50851;SDS011;43953;45.508;-122.806;2022-09-27T03:46:42;10.95;;;8.30;;
50851;SDS011;43953;45.508;-122.806;2022-09-27T03:47:14;9.27;;;8.40;;
50851;SDS011;43953;45.508;-122.806;2022-09-27T03:47:45;9.82;;;8.05;;
50851;SDS011;43953;45.508;-122.806;2022-09-27T03:48:17;9.20;;;8.32;;
50851;SDS011;43953;45.508;-122.806;2022-09-27T03:48:49;10.77;;;9.77;;
50851;SDS011;43953;45.508;-122.806;2022-09-27T03:49:21;7.85;;;7.10;;
50851;SDS011;43953;45.508;-122.806;2022-09-27T03:49:52;8.40;;;7.43;;
50851;SDS011;43953;45.508;-122.806;2022-09-27T03:50:24;8.15;;;7.40;;
50851;SDS011;43953;45.508;-122.806;2022-09-27T03:50:56;8.52;;;7.72;;
50851;SDS011;43953;45.508;-122.806;2022-09-27T03:51:28;9.90;;;8.65;;
50851;SDS011;43953;45.508;-122.806;2022-09-27T03:51:59;7.65;;;6.95;;
50851;SDS011;43953;45.508;-122.806;2022-09-27T03:52:31;8.48;;;7.68;;
50851;SDS011;43953;45.508;-122.806;2022-09-27T03:53:03;7.63;;;6.95;;
50851;SDS011;43953;45.508;-122.806;2022-09-27T03:53:35;13.15;;;8.43;;
50851;SDS011;43953;45.508;-122.806;2022-09-27T03:54:07;9.73;;;8.77;;
50851;SDS011;43953;45.508;-122.806;2022-09-27T03:54:38;10.27;;;9.25;;
50851;SDS011;43953;45.508;-122.806;2022-09-27T03:55:10;9.30;;;8.40;;
50851;SDS011;43953;45.508;-122.806;2022-09-27T03:55:44;9.60;;;8.55;;
50851;SDS011;43953;45.508;-122.806;2022-09-27T03:56:16;8.38;;;7.68;;
50851;SDS011;43953;45.508;-122.806;2022-09-27T03:56:48;8.82;;;8.02;;
50851;SDS011;43953;45.508;-122.806;2022-09-27T03:57:19;12.77;;;8.70;;
50851;SDS011;43953;45.508;-122.806;2022-09-27T03:57:51;11.40;;;9.68;;
50851;SDS011;43953;45.508;-122.806;2022-09-27T03:58:23;9.07;;;8.38;;
50851;SDS011;43953;45.508;-122.806;2022-09-27T03:58:55;10.98;;;8.90;;
50851;SDS011;43953;45.508;-122.806;2022-09-27T03:59:26;9.48;;;8.60;;
50851;SDS011;43953;45.508;-122.806;2022-09-27T03:59:58;9.52;;;8.75;;
50851;SDS011;43953;45.508;-122.806;2022-09-27T04:00:30;8.73;;;7.95;;
50851;SDS011;43953;45.508;-122.806;2022-09-27T04:01:06;9.40;;;8.50;;
50851;SDS011;43953;45.508;-122.806;2022-09-27T04:01:37;9.88;;;9.05;;
50851;SDS011;43953;45.508;-122.806;2022-09-27T04:02:09;8.95;;;8.15;;
50851;SDS011;43953;45.508;-122.806;2022-09-27T04:02:41;9.68;;;8.30;;
50851;SDS011;43953;45.508;-122.806;2022-09-27T04:03:13;9.35;;;8.45;;
50851;SDS011;43953;45.508;-122.806;2022-09-27T04:03:44;9.90;;;8.68;;
50851;SDS011;43953;45.508;-122.806;2022-09-27T04:04:16;9.63;;;8.73;;
50851;SDS011;43953;45.508;-122.806;2022-09-27T04:04:48;8.98;;;8.07;;
50851;SDS011;43953;45.508;-122.806;2022-09-27T04:05:20;10.13;;;9.23;;
50851;SDS011;43953;45.508;-122.806;2022-09-27T04:05:52;10.95;;;9.95;;
50851;SDS011;43953;45.508;-122.806;2022-09-27T04:06:24;10.85;;;9.95;;